createdAt,value
2023-03-17T06:14:15.599Z,8.64
2023-03-17T06:16:43.791Z,8.89
2023-03-17T06:19:11.152Z,8.97
2023-03-17T06:21:38.669Z,9.23
2023-03-17T06:24:07.941Z,9.34
2023-03-17T06:26:37.190Z,9.46
2023-03-17T06:29:09.743Z,9.57
2023-03-17T06:31:38.118Z,9.56
2023-03-17T06:34:06.146Z,9.78
2023-03-17T06:36:33.966Z,9.57
2023-03-17T06:39:02.097Z,9.69
2023-03-17T06:41:29.383Z,9.79
2023-03-17T06:43:56.698Z,9.89
2023-03-17T06:46:24.038Z,9.79
2023-03-17T06:48:51.409Z,9.92
2023-03-17T06:51:18.684Z,10.14
2023-03-17T06:53:46.044Z,10.15
2023-03-17T06:56:28.884Z,10.04
2023-03-17T06:58:57.063Z,10.12
2023-03-17T07:01:27.329Z,10.21
2023-03-17T07:03:55.425Z,10.13
2023-03-17T07:06:25.485Z,10.41
2023-03-17T07:08:52.927Z,10.26
2023-03-17T07:11:20.374Z,10.39
2023-03-17T07:13:47.758Z,10.28
2023-03-17T07:16:16.774Z,10.36
2023-03-17T07:18:45.045Z,10.43
2023-03-17T07:21:12.757Z,10.47
2023-03-17T07:23:40.131Z,10.52
2023-03-17T07:26:07.513Z,10.67
2023-03-17T07:28:34.932Z,10.72
2023-03-17T07:31:02.886Z,10.77
2023-03-17T07:33:31.380Z,10.76
2023-03-17T07:35:58.927Z,10.83
2023-03-17T07:38:26.530Z,10.59
2023-03-17T07:40:53.891Z,10.84
2023-03-17T07:43:21.745Z,10.83
2023-03-17T07:45:49.178Z,10.70
2023-03-17T07:48:16.655Z,10.84
2023-03-17T07:50:44.484Z,11.01
2023-03-17T07:53:11.920Z,11.01
2023-03-17T07:55:39.277Z,11.11
2023-03-17T07:58:07.632Z,11.23
2023-03-17T08:00:35.592Z,11.33
2023-03-17T08:03:10.162Z,11.32
2023-03-17T08:05:38.313Z,11.57
2023-03-17T08:08:06.688Z,11.50
2023-03-17T08:10:34.717Z,11.90
2023-03-17T08:13:02.484Z,11.67
2023-03-17T08:15:31.278Z,11.84
2023-03-17T08:17:58.679Z,11.97
2023-03-17T08:20:26.884Z,11.89
2023-03-17T08:22:54.490Z,11.86
2023-03-17T08:25:22.790Z,11.93
2023-03-17T08:27:50.610Z,12.21
2023-03-17T08:30:18.574Z,12.16
2023-03-17T08:32:46.630Z,12.31
2023-03-17T08:35:16.686Z,12.45
2023-03-17T08:37:47.087Z,12.68
2023-03-17T08:40:19.712Z,12.70
2023-03-17T08:42:49.183Z,12.93
2023-03-17T08:45:18.405Z,12.96
2023-03-17T08:47:47.760Z,13.26
2023-03-17T08:50:22.065Z,13.37
2023-03-17T08:52:51.969Z,13.42
2023-03-17T08:55:20.069Z,13.43
2023-03-17T08:57:47.838Z,13.59
2023-03-17T09:00:20.457Z,13.49
2023-03-17T09:02:49.329Z,13.56
2023-03-17T09:05:18.071Z,13.60
2023-03-17T09:07:45.555Z,13.84
2023-03-17T09:10:15.020Z,13.93
2023-03-17T09:12:42.836Z,13.79
2023-03-17T09:15:12.752Z,13.94
2023-03-17T09:17:43.757Z,13.93
2023-03-17T09:20:12.366Z,14.16
2023-03-17T09:22:40.095Z,14.36
2023-03-17T09:25:08.124Z,14.42
2023-03-17T09:27:36.382Z,14.39
2023-03-17T09:30:04.427Z,14.44
2023-03-17T09:32:32.420Z,14.67
2023-03-17T09:35:00.632Z,14.61
2023-03-17T09:37:28.374Z,14.82
2023-03-17T09:39:55.846Z,14.79
2023-03-17T09:43:08.186Z,15.01
2023-03-17T09:45:43.570Z,15.00
2023-03-17T09:48:46.918Z,15.25
2023-03-17T09:51:19.774Z,15.50
2023-03-17T09:54:16.196Z,15.47
2023-03-17T09:56:52.285Z,15.87
2023-03-17T09:59:40.724Z,16.05
2023-03-17T10:02:32.902Z,16.16
2023-03-17T10:05:32.180Z,16.20
2023-03-17T10:08:34.996Z,16.61
2023-03-17T10:11:46.037Z,16.62
2023-03-17T10:14:52.491Z,16.58
2023-03-17T10:17:29.856Z,16.74
2023-03-17T10:20:17.815Z,16.96
2023-03-17T10:23:19.259Z,16.97
2023-03-17T10:25:46.660Z,17.14
2023-03-17T10:28:29.699Z,17.36
2023-03-17T10:31:20.594Z,17.59
2023-03-17T10:33:52.450Z,17.60
2023-03-17T10:36:42.442Z,17.79
2023-03-17T10:39:21.581Z,17.80
2023-03-17T10:42:29.633Z,18.05
2023-03-17T10:45:37.781Z,18.05
2023-03-17T10:48:10.684Z,18.27
2023-03-17T10:50:41.173Z,18.11
2023-03-17T10:53:30.774Z,18.05
2023-03-17T10:56:32.007Z,18.38
2023-03-17T10:59:20.766Z,18.37
2023-03-17T11:02:02.222Z,18.08
2023-03-17T11:04:43.337Z,18.49
2023-03-17T11:07:31.377Z,18.25
2023-03-17T11:10:03.274Z,18.23
2023-03-17T11:12:40.763Z,18.41
2023-03-17T11:15:17.985Z,18.30
2023-03-17T11:18:03.528Z,18.41
2023-03-17T11:21:09.986Z,19.09
2023-03-17T11:24:16.077Z,19.67
2023-03-17T11:27:06.936Z,20.04
2023-03-17T11:30:05.296Z,20.13
2023-03-17T11:33:08.989Z,20.74
2023-03-17T11:36:03.969Z,20.31
2023-03-17T11:38:43.018Z,21.08
2023-03-17T11:41:48.930Z,21.20
2023-03-17T11:45:10.860Z,21.36
2023-03-17T11:48:32.627Z,20.99
2023-03-17T11:51:49.104Z,21.06
2023-03-17T11:54:45.840Z,21.47
2023-03-17T11:57:53.131Z,21.58
2023-03-17T12:00:50.762Z,21.92
2023-03-17T12:04:14.020Z,21.54
2023-03-17T12:06:58.620Z,22.01
2023-03-17T12:09:38.275Z,22.44
2023-03-17T12:12:07.838Z,22.22
2023-03-17T12:14:50.133Z,22.93
2023-03-17T12:17:35.808Z,23.26
2023-03-17T12:20:27.907Z,22.94
2023-03-17T12:23:30.041Z,23.04
2023-03-17T12:26:21.668Z,22.84
2023-03-17T12:29:24.955Z,22.63
2023-03-17T12:32:44.027Z,22.27
2023-03-17T12:35:35.019Z,22.42
2023-03-17T12:39:01.906Z,22.34
2023-03-17T12:41:58.616Z,22.21
2023-03-17T12:45:29.032Z,22.47
2023-03-17T12:48:19.863Z,22.35
2023-03-17T12:51:28.885Z,23.02
2023-03-17T12:53:57.245Z,23.55
2023-03-17T12:56:34.533Z,23.72
2023-03-17T12:59:16.760Z,23.69
2023-03-17T13:02:16.177Z,23.65
2023-03-17T13:05:02.666Z,23.95
2023-03-17T13:07:56.868Z,24.17
2023-03-17T13:10:50.534Z,24.78
2023-03-17T13:13:55.627Z,24.59
2023-03-17T13:16:41.605Z,24.38
2023-03-17T13:19:31.142Z,24.39
2023-03-17T13:22:21.372Z,24.55
2023-03-17T13:24:53.244Z,24.87
2023-03-17T13:27:33.033Z,24.84
2023-03-17T13:30:26.934Z,24.75
2023-03-17T13:33:10.095Z,24.56
2023-03-17T13:35:45.160Z,23.86
2023-03-17T13:38:52.464Z,23.91
2023-03-17T13:42:22.968Z,23.38
2023-03-17T13:45:38.336Z,23.80
2023-03-17T13:48:30.425Z,23.33
2023-03-17T13:51:18.588Z,23.08
2023-03-17T13:54:30.463Z,23.31
2023-03-17T13:57:27.513Z,23.24
2023-03-17T14:00:29.133Z,23.01
2023-03-17T14:03:36.336Z,22.93
2023-03-17T14:06:08.792Z,22.56
2023-03-17T14:08:44.584Z,22.42
2023-03-17T14:11:40.690Z,22.36
2023-03-17T14:14:32.797Z,22.59
2023-03-17T14:17:24.346Z,22.35
2023-03-17T14:20:28.407Z,22.33
2023-03-17T14:23:04.273Z,22.43
2023-03-17T14:25:39.546Z,22.26
2023-03-17T14:28:16.458Z,22.22
2023-03-17T14:31:02.279Z,22.17
2023-03-17T14:33:36.676Z,22.08
2023-03-17T14:36:14.178Z,22.30
2023-03-17T14:38:54.195Z,22.45
2023-03-17T14:41:28.022Z,22.36
2023-03-17T14:44:00.930Z,22.49
2023-03-17T14:46:38.677Z,22.43
2023-03-17T14:49:20.912Z,22.56
2023-03-17T14:51:57.319Z,22.36
2023-03-17T14:54:34.629Z,22.44
2023-03-17T14:57:30.236Z,22.07
2023-03-17T15:00:34.107Z,22.53
2023-03-17T15:03:05.276Z,22.43
2023-03-17T15:05:42.707Z,22.01
2023-03-17T15:08:36.375Z,22.16
2023-03-17T15:11:06.603Z,22.12
2023-03-17T15:13:38.250Z,21.83
2023-03-17T15:16:33.605Z,21.76
2023-03-17T15:19:40.619Z,21.87
2023-03-17T15:22:43.844Z,20.71
2023-03-17T15:25:49.955Z,21.01
2023-03-17T15:28:21.849Z,20.86
2023-03-17T15:30:56.805Z,21.01
2023-03-17T15:33:29.928Z,20.89
2023-03-17T15:36:00.039Z,20.90
2023-03-17T15:38:28.394Z,21.34
2023-03-17T15:40:56.566Z,21.10
2023-03-17T15:43:24.222Z,20.85
2023-03-17T15:46:07.169Z,20.92
2023-03-17T15:48:36.981Z,21.06
2023-03-17T15:51:06.367Z,21.22
2023-03-17T15:53:33.832Z,21.23
2023-03-17T15:56:01.274Z,20.94
2023-03-17T15:58:28.686Z,21.25
2023-03-17T16:00:59.183Z,20.89
2023-03-17T16:03:37.059Z,20.79
2023-03-17T16:06:14.275Z,20.92
2023-03-17T16:08:41.610Z,21.11
2023-03-17T16:11:19.145Z,21.13
2023-03-17T16:13:47.736Z,21.25
2023-03-17T16:16:43.557Z,20.99
2023-03-17T16:19:22.871Z,21.05
2023-03-17T16:21:51.242Z,20.88
2023-03-17T16:24:26.820Z,20.82
2023-03-17T16:26:54.283Z,20.75
2023-03-17T16:29:22.120Z,20.63
2023-03-17T16:31:51.260Z,20.63
2023-03-17T16:34:23.770Z,20.62
2023-03-17T16:36:51.418Z,20.64
2023-03-17T16:39:23.388Z,20.69
2023-03-17T16:41:53.453Z,20.66
2023-03-17T16:44:21.832Z,20.75
2023-03-17T16:46:49.495Z,20.77
2023-03-17T16:49:23.069Z,20.63
2023-03-17T16:51:50.867Z,20.66
2023-03-17T16:54:18.398Z,20.60
2023-03-17T16:56:45.867Z,20.32
2023-03-17T16:59:22.172Z,20.32
2023-03-17T17:01:49.644Z,20.29
2023-03-17T17:04:17.140Z,20.36
2023-03-17T17:06:44.444Z,20.24
2023-03-17T17:09:11.805Z,20.42
2023-03-17T17:11:39.281Z,20.26
2023-03-17T17:14:06.576Z,20.13
2023-03-17T17:16:39.933Z,20.16
2023-03-17T17:19:18.070Z,20.10
2023-03-17T17:21:45.735Z,19.88
2023-03-17T17:24:14.546Z,19.80
2023-03-17T17:26:41.934Z,19.92
2023-03-17T17:29:09.342Z,19.79
2023-03-17T17:31:36.931Z,19.92
2023-03-17T17:34:04.490Z,19.75
2023-03-17T17:36:31.904Z,19.79
2023-03-17T17:38:59.554Z,19.71
2023-03-17T17:41:27.039Z,19.52
2023-03-17T17:43:54.526Z,19.58
2023-03-17T17:46:23.483Z,19.65
2023-03-17T17:48:50.894Z,19.74
2023-03-17T17:51:18.246Z,19.67
2023-03-17T17:53:45.576Z,19.54
2023-03-17T17:56:16.830Z,19.36
2023-03-17T17:58:45.306Z,19.43
2023-03-17T18:01:16.782Z,19.57
2023-03-17T18:03:44.196Z,19.54
2023-03-17T18:06:17.156Z,19.49
2023-03-17T18:08:44.818Z,19.51
2023-03-17T18:11:12.196Z,19.19
2023-03-17T18:13:40.248Z,19.20
2023-03-17T18:16:10.038Z,19.18
2023-03-17T18:18:40.602Z,19.11
2023-03-17T18:21:08.174Z,19.07
2023-03-17T18:23:36.616Z,19.11
2023-03-17T18:26:06.212Z,19.09
2023-03-17T18:28:34.185Z,19.03
2023-03-17T18:31:15.473Z,18.73
2023-03-17T18:33:46.000Z,18.78
2023-03-17T18:36:13.589Z,18.76
2023-03-17T18:38:41.054Z,18.78
2023-03-17T18:41:11.033Z,18.73
2023-03-17T18:43:41.248Z,18.53
2023-03-17T18:46:08.831Z,18.48
2023-03-17T18:48:36.406Z,18.61
2023-03-17T18:51:03.896Z,18.59
2023-03-17T18:53:34.026Z,18.59
2023-03-17T18:56:02.521Z,18.54
2023-03-17T18:58:30.119Z,18.53
2023-03-17T19:01:02.268Z,18.43
2023-03-17T19:03:32.227Z,18.65
2023-03-17T19:06:15.524Z,17.94
2023-03-17T19:08:44.039Z,17.88
2023-03-17T19:11:16.255Z,17.91
2023-03-17T19:13:45.344Z,17.93
2023-03-17T19:16:13.555Z,17.76
2023-03-17T19:18:42.382Z,17.69
2023-03-17T19:21:13.082Z,17.45
2023-03-17T19:23:41.582Z,17.49
2023-03-17T19:26:09.010Z,17.40
2023-03-17T19:28:36.349Z,17.27
2023-03-17T19:31:03.941Z,17.24
2023-03-17T19:33:32.758Z,17.41
2023-03-17T19:36:05.462Z,17.27
2023-03-17T19:38:33.033Z,17.05
2023-03-17T19:41:00.377Z,17.27
2023-03-17T19:43:39.920Z,17.10
2023-03-17T19:46:11.341Z,17.11
2023-03-17T19:48:40.015Z,17.01
2023-03-17T19:51:08.107Z,16.92
2023-03-17T19:53:37.379Z,16.86
2023-03-17T19:56:05.395Z,17.00
2023-03-17T19:58:32.811Z,17.10
2023-03-17T20:01:00.360Z,16.88
2023-03-17T20:03:28.480Z,17.02
2023-03-17T20:05:55.926Z,17.07
2023-03-17T20:08:24.707Z,16.74
2023-03-17T20:10:55.240Z,16.81
2023-03-17T20:13:22.721Z,16.84
2023-03-17T20:15:51.507Z,16.58
2023-03-17T20:18:19.801Z,16.70
2023-03-17T20:20:53.728Z,16.75
2023-03-17T20:23:22.645Z,16.78
2023-03-17T20:25:52.301Z,16.65
2023-03-17T20:28:24.187Z,16.59
2023-03-17T20:30:51.683Z,16.54
2023-03-17T20:33:19.228Z,16.75
2023-03-17T20:35:47.543Z,16.59
2023-03-17T20:38:15.499Z,16.66
2023-03-17T20:40:43.134Z,16.35
2023-03-17T20:43:10.803Z,16.08
2023-03-17T20:45:38.451Z,15.97
2023-03-17T20:48:09.308Z,15.99
2023-03-17T20:50:39.171Z,16.24
2023-03-17T20:53:07.355Z,15.65
2023-03-17T20:55:36.371Z,15.70
2023-03-17T20:58:04.014Z,15.87
2023-03-17T21:00:32.020Z,15.84
2023-03-17T21:03:00.317Z,15.77
2023-03-17T21:05:28.418Z,15.96
2023-03-17T21:07:56.647Z,15.84
2023-03-17T21:10:24.414Z,15.60
2023-03-17T21:12:51.709Z,15.46
2023-03-17T21:15:19.782Z,15.50
2023-03-17T21:17:47.240Z,15.80
2023-03-17T21:20:15.520Z,15.85
2023-03-17T21:22:43.398Z,16.00
2023-03-17T21:25:11.580Z,15.88
2023-03-17T21:27:40.739Z,16.03
2023-03-17T21:30:14.302Z,16.01
2023-03-17T21:32:42.512Z,15.89
2023-03-17T21:35:10.514Z,16.07
2023-03-17T21:37:37.938Z,15.90
2023-03-17T21:40:06.968Z,16.07
2023-03-17T21:42:34.992Z,16.07
2023-03-17T21:45:02.579Z,16.08
2023-03-17T21:47:30.160Z,16.07
2023-03-17T21:50:00.753Z,16.02
2023-03-17T21:52:27.964Z,16.12
2023-03-17T21:54:55.882Z,16.11
2023-03-17T21:57:23.295Z,16.14
2023-03-17T21:59:50.799Z,15.84
2023-03-17T22:02:18.103Z,15.98
2023-03-17T22:04:46.909Z,15.53
2023-03-17T22:07:16.518Z,15.75
2023-03-17T22:09:44.503Z,15.01
2023-03-17T22:12:13.674Z,15.60
2023-03-17T22:14:41.617Z,15.73
2023-03-17T22:17:09.164Z,15.71
2023-03-17T22:19:37.117Z,15.74
2023-03-17T22:22:04.471Z,15.50
2023-03-17T22:24:32.458Z,15.84
2023-03-17T22:26:59.843Z,15.81
2023-03-17T22:29:27.156Z,15.66
2023-03-17T22:31:54.547Z,15.71
2023-03-17T22:34:21.909Z,15.73
2023-03-17T22:36:49.239Z,15.94
2023-03-17T22:39:17.302Z,15.84
2023-03-17T22:41:45.030Z,15.80
2023-03-17T22:44:12.351Z,15.87
2023-03-17T22:46:43.735Z,15.74
2023-03-17T22:49:11.438Z,15.63
2023-03-17T22:51:41.273Z,15.55
2023-03-17T22:54:11.270Z,15.46
2023-03-17T22:56:38.903Z,15.53
2023-03-17T22:59:06.666Z,15.36
2023-03-17T23:01:34.246Z,15.30
2023-03-17T23:04:02.245Z,15.21
2023-03-17T23:06:29.760Z,15.41
2023-03-17T23:08:57.907Z,15.37
2023-03-17T23:11:28.039Z,15.44
2023-03-17T23:13:55.612Z,15.46
2023-03-17T23:16:24.639Z,15.18
2023-03-17T23:18:52.710Z,15.39
2023-03-17T23:21:37.799Z,15.03
2023-03-17T23:24:08.521Z,15.17
2023-03-17T23:26:37.121Z,15.05
2023-03-17T23:29:08.532Z,15.00
2023-03-17T23:31:37.096Z,15.12
